sensor_id;sensor_type;location;lat;lon;timestamp;P1;durP1;ratioP1;P2;durP2;ratioP2
55031;SDS011;40928;51.076;7.950;2022-09-09T00:04:24;1.90;;;0.57;;
55031;SDS011;40928;51.076;7.950;2022-09-09T00:12:22;4.93;;;0.82;;
55031;SDS011;40928;51.076;7.950;2022-09-09T00:14:55;2.55;;;0.65;;
55031;SDS011;40928;51.076;7.950;2022-09-09T00:22:17;2.08;;;0.82;;
55031;SDS011;40928;51.076;7.950;2022-09-09T00:24:49;2.13;;;0.75;;
55031;SDS011;40928;51.076;7.950;2022-09-09T00:27:38;2.35;;;0.90;;
55031;SDS011;40928;51.076;7.950;2022-09-09T00:30:17;5.88;;;0.93;;
55031;SDS011;40928;51.076;7.950;2022-09-09T00:32:58;2.90;;;1.10;;
55031;SDS011;40928;51.076;7.950;2022-09-09T00:35:38;2.30;;;0.88;;
55031;SDS011;40928;51.076;7.950;2022-09-09T00:38:19;3.53;;;0.82;;
55031;SDS011;40928;51.076;7.950;2022-09-09T00:40:52;2.97;;;1.00;;
55031;SDS011;40928;51.076;7.950;2022-09-09T00:43:31;3.00;;;1.10;;
55031;SDS011;40928;51.076;7.950;2022-09-09T00:54:15;4.60;;;0.88;;
55031;SDS011;40928;51.076;7.950;2022-09-09T01:02:16;4.00;;;1.13;;
55031;SDS011;40928;51.076;7.950;2022-09-09T01:04:51;13.43;;;1.13;;
55031;SDS011;40928;51.076;7.950;2022-09-09T01:07:18;3.65;;;0.85;;
55031;SDS011;40928;51.076;7.950;2022-09-09T01:09:57;4.90;;;0.90;;
55031;SDS011;40928;51.076;7.950;2022-09-09T01:15:18;3.78;;;0.82;;
55031;SDS011;40928;51.076;7.950;2022-09-09T01:20:37;2.75;;;0.73;;
55031;SDS011;40928;51.076;7.950;2022-09-09T01:28:44;4.55;;;0.70;;
55031;SDS011;40928;51.076;7.950;2022-09-09T01:34:11;2.65;;;0.60;;
55031;SDS011;40928;51.076;7.950;2022-09-09T01:36:43;2.55;;;0.70;;
55031;SDS011;40928;51.076;7.950;2022-09-09T01:39:16;11.93;;;2.65;;
55031;SDS011;40928;51.076;7.950;2022-09-09T01:41:43;4.75;;;0.90;;
55031;SDS011;40928;51.076;7.950;2022-09-09T01:44:11;3.65;;;0.90;;
55031;SDS011;40928;51.076;7.950;2022-09-09T01:46:40;9.90;;;1.08;;
55031;SDS011;40928;51.076;7.950;2022-09-09T01:49:12;4.55;;;1.05;;
55031;SDS011;40928;51.076;7.950;2022-09-09T01:51:38;4.95;;;1.83;;
55031;SDS011;40928;51.076;7.950;2022-09-09T01:54:10;2.17;;;0.85;;
55031;SDS011;40928;51.076;7.950;2022-09-09T01:56:55;1.80;;;0.95;;
55031;SDS011;40928;51.076;7.950;2022-09-09T02:00:08;2.70;;;0.80;;
55031;SDS011;40928;51.076;7.950;2022-09-09T02:03:00;2.90;;;0.50;;
55031;SDS011;40928;51.076;7.950;2022-09-09T02:11:23;5.18;;;0.90;;
55031;SDS011;40928;51.076;7.950;2022-09-09T02:14:18;9.13;;;1.15;;
55031;SDS011;40928;51.076;7.950;2022-09-09T02:16:50;5.45;;;0.88;;
55031;SDS011;40928;51.076;7.950;2022-09-09T02:19:34;5.30;;;1.30;;
55031;SDS011;40928;51.076;7.950;2022-09-09T02:22:12;7.20;;;1.20;;
55031;SDS011;40928;51.076;7.950;2022-09-09T02:24:38;4.50;;;1.10;;
55031;SDS011;40928;51.076;7.950;2022-09-09T02:27:31;7.38;;;1.05;;
55031;SDS011;40928;51.076;7.950;2022-09-09T02:29:56;6.90;;;1.10;;
55031;SDS011;40928;51.076;7.950;2022-09-09T02:32:41;2.35;;;0.70;;
55031;SDS011;40928;51.076;7.950;2022-09-09T02:35:15;4.55;;;1.17;;
55031;SDS011;40928;51.076;7.950;2022-09-09T02:37:45;3.42;;;0.90;;
55031;SDS011;40928;51.076;7.950;2022-09-09T02:40:12;3.83;;;1.05;;
55031;SDS011;40928;51.076;7.950;2022-09-09T02:42:45;2.90;;;0.80;;
55031;SDS011;40928;51.076;7.950;2022-09-09T02:45:14;7.20;;;1.40;;
55031;SDS011;40928;51.076;7.950;2022-09-09T02:50:54;5.55;;;0.95;;
55031;SDS011;40928;51.076;7.950;2022-09-09T02:56:21;4.43;;;1.00;;
55031;SDS011;40928;51.076;7.950;2022-09-09T02:58:54;5.72;;;1.30;;
55031;SDS011;40928;51.076;7.950;2022-09-09T03:01:20;2.60;;;1.05;;
55031;SDS011;40928;51.076;7.950;2022-09-09T03:03:46;8.05;;;1.35;;
55031;SDS011;40928;51.076;7.950;2022-09-09T03:06:14;3.50;;;1.13;;
55031;SDS011;40928;51.076;7.950;2022-09-09T03:08:40;4.10;;;1.23;;
55031;SDS011;40928;51.076;7.950;2022-09-09T03:11:12;4.07;;;1.00;;
55031;SDS011;40928;51.076;7.950;2022-09-09T03:13:40;6.68;;;1.42;;
55031;SDS011;40928;51.076;7.950;2022-09-09T03:16:06;4.47;;;1.85;;
55031;SDS011;40928;51.076;7.950;2022-09-09T03:18:37;2.55;;;1.25;;
55031;SDS011;40928;51.076;7.950;2022-09-09T03:21:03;3.83;;;1.52;;
55031;SDS011;40928;51.076;7.950;2022-09-09T03:23:29;5.47;;;1.15;;
55031;SDS011;40928;51.076;7.950;2022-09-09T03:25:57;7.10;;;1.63;;
55031;SDS011;40928;51.076;7.950;2022-09-09T03:28:32;1.80;;;0.90;;
55031;SDS011;40928;51.076;7.950;2022-09-09T03:31:01;4.55;;;0.90;;
55031;SDS011;40928;51.076;7.950;2022-09-09T03:33:34;3.65;;;1.23;;
55031;SDS011;40928;51.076;7.950;2022-09-09T03:36:01;8.43;;;1.58;;
55031;SDS011;40928;51.076;7.950;2022-09-09T03:38:28;2.10;;;1.02;;
55031;SDS011;40928;51.076;7.950;2022-09-09T03:40:54;5.95;;;2.22;;
55031;SDS011;40928;51.076;7.950;2022-09-09T03:43:23;4.70;;;1.60;;
55031;SDS011;40928;51.076;7.950;2022-09-09T03:45:51;4.30;;;1.27;;
55031;SDS011;40928;51.076;7.950;2022-09-09T03:48:17;3.47;;;1.20;;
55031;SDS011;40928;51.076;7.950;2022-09-09T03:50:45;5.35;;;1.38;;
55031;SDS011;40928;51.076;7.950;2022-09-09T03:53:11;7.13;;;1.33;;
55031;SDS011;40928;51.076;7.950;2022-09-09T03:55:38;3.88;;;1.20;;
55031;SDS011;40928;51.076;7.950;2022-09-09T03:58:04;4.47;;;1.23;;
55031;SDS011;40928;51.076;7.950;2022-09-09T04:00:29;4.80;;;1.40;;
55031;SDS011;40928;51.076;7.950;2022-09-09T04:02:55;2.08;;;1.33;;
55031;SDS011;40928;51.076;7.950;2022-09-09T04:05:21;5.82;;;1.15;;
55031;SDS011;40928;51.076;7.950;2022-09-09T04:07:48;3.97;;;1.40;;
55031;SDS011;40928;51.076;7.950;2022-09-09T04:10:13;7.88;;;1.73;;
55031;SDS011;40928;51.076;7.950;2022-09-09T04:12:41;4.57;;;1.35;;
55031;SDS011;40928;51.076;7.950;2022-09-09T04:15:07;8.20;;;1.50;;
55031;SDS011;40928;51.076;7.950;2022-09-09T04:17:34;4.05;;;1.20;;
55031;SDS011;40928;51.076;7.950;2022-09-09T04:20:02;5.63;;;1.85;;
55031;SDS011;40928;51.076;7.950;2022-09-09T04:22:27;6.65;;;1.30;;
55031;SDS011;40928;51.076;7.950;2022-09-09T04:24:53;4.00;;;0.88;;
55031;SDS011;40928;51.076;7.950;2022-09-09T04:27:19;3.05;;;0.90;;
55031;SDS011;40928;51.076;7.950;2022-09-09T04:29:45;5.30;;;1.40;;
55031;SDS011;40928;51.076;7.950;2022-09-09T04:32:12;2.10;;;0.90;;
55031;SDS011;40928;51.076;7.950;2022-09-09T04:34:38;5.72;;;1.38;;
55031;SDS011;40928;51.076;7.950;2022-09-09T04:37:04;11.63;;;1.40;;
55031;SDS011;40928;51.076;7.950;2022-09-09T04:39:30;2.88;;;1.10;;
55031;SDS011;40928;51.076;7.950;2022-09-09T04:41:58;6.20;;;1.15;;
55031;SDS011;40928;51.076;7.950;2022-09-09T04:44:24;5.13;;;1.52;;
55031;SDS011;40928;51.076;7.950;2022-09-09T04:46:50;4.75;;;1.10;;
55031;SDS011;40928;51.076;7.950;2022-09-09T04:49:15;7.00;;;1.00;;
55031;SDS011;40928;51.076;7.950;2022-09-09T04:51:42;5.05;;;1.50;;
55031;SDS011;40928;51.076;7.950;2022-09-09T04:54:08;4.63;;;1.10;;
55031;SDS011;40928;51.076;7.950;2022-09-09T04:56:42;7.63;;;1.40;;
55031;SDS011;40928;51.076;7.950;2022-09-09T04:59:09;4.30;;;1.63;;
55031;SDS011;40928;51.076;7.950;2022-09-09T05:01:41;11.15;;;1.63;;
55031;SDS011;40928;51.076;7.950;2022-09-09T05:04:07;6.80;;;1.50;;
55031;SDS011;40928;51.076;7.950;2022-09-09T05:06:34;7.30;;;1.75;;
55031;SDS011;40928;51.076;7.950;2022-09-09T05:09:01;4.60;;;1.25;;
55031;SDS011;40928;51.076;7.950;2022-09-09T05:11:29;3.75;;;1.00;;
55031;SDS011;40928;51.076;7.950;2022-09-09T05:14:05;6.13;;;1.70;;
55031;SDS011;40928;51.076;7.950;2022-09-09T05:16:31;3.25;;;1.30;;
55031;SDS011;40928;51.076;7.950;2022-09-09T05:18:57;8.73;;;1.60;;
55031;SDS011;40928;51.076;7.950;2022-09-09T05:21:24;13.23;;;1.55;;
55031;SDS011;40928;51.076;7.950;2022-09-09T05:23:54;11.82;;;1.95;;
55031;SDS011;40928;51.076;7.950;2022-09-09T05:26:20;5.15;;;1.40;;
55031;SDS011;40928;51.076;7.950;2022-09-09T05:28:48;7.60;;;1.70;;
55031;SDS011;40928;51.076;7.950;2022-09-09T05:31:15;4.93;;;2.08;;
55031;SDS011;40928;51.076;7.950;2022-09-09T05:33:44;7.00;;;1.67;;
55031;SDS011;40928;51.076;7.950;2022-09-09T05:36:13;7.60;;;1.67;;
55031;SDS011;40928;51.076;7.950;2022-09-09T05:38:40;5.07;;;1.00;;
55031;SDS011;40928;51.076;7.950;2022-09-09T05:41:07;3.08;;;0.80;;
55031;SDS011;40928;51.076;7.950;2022-09-09T05:43:34;8.15;;;1.20;;
55031;SDS011;40928;51.076;7.950;2022-09-09T05:46:05;3.00;;;1.10;;
55031;SDS011;40928;51.076;7.950;2022-09-09T05:48:34;3.72;;;0.95;;
55031;SDS011;40928;51.076;7.950;2022-09-09T05:51:01;4.38;;;1.40;;
55031;SDS011;40928;51.076;7.950;2022-09-09T05:53:28;4.55;;;1.25;;
55031;SDS011;40928;51.076;7.950;2022-09-09T05:56:01;5.22;;;1.20;;
55031;SDS011;40928;51.076;7.950;2022-09-09T05:58:31;4.55;;;1.00;;
55031;SDS011;40928;51.076;7.950;2022-09-09T06:01:16;4.60;;;1.10;;
55031;SDS011;40928;51.076;7.950;2022-09-09T06:03:46;4.82;;;1.10;;
55031;SDS011;40928;51.076;7.950;2022-09-09T06:06:14;7.13;;;1.17;;
55031;SDS011;40928;51.076;7.950;2022-09-09T06:08:43;2.63;;;0.90;;
55031;SDS011;40928;51.076;7.950;2022-09-09T06:11:16;4.63;;;0.80;;
55031;SDS011;40928;51.076;7.950;2022-09-09T06:13:42;2.90;;;0.60;;
55031;SDS011;40928;51.076;7.950;2022-09-09T06:16:18;3.42;;;1.00;;
55031;SDS011;40928;51.076;7.950;2022-09-09T06:18:45;2.70;;;0.60;;
55031;SDS011;40928;51.076;7.950;2022-09-09T06:21:14;3.55;;;0.93;;
55031;SDS011;40928;51.076;7.950;2022-09-09T06:23:41;6.10;;;0.95;;
55031;SDS011;40928;51.076;7.950;2022-09-09T06:28:38;7.53;;;1.45;;
55031;SDS011;40928;51.076;7.950;2022-09-09T06:31:09;4.95;;;1.20;;
55031;SDS011;40928;51.076;7.950;2022-09-09T06:33:37;8.07;;;1.40;;
55031;SDS011;40928;51.076;7.950;2022-09-09T06:36:11;5.13;;;1.08;;
55031;SDS011;40928;51.076;7.950;2022-09-09T06:38:39;10.68;;;1.65;;
55031;SDS011;40928;51.076;7.950;2022-09-09T06:41:05;4.28;;;1.10;;
55031;SDS011;40928;51.076;7.950;2022-09-09T06:43:32;5.18;;;0.80;;
55031;SDS011;40928;51.076;7.950;2022-09-09T06:46:00;6.72;;;1.17;;
55031;SDS011;40928;51.076;7.950;2022-09-09T06:48:31;4.63;;;1.30;;
55031;SDS011;40928;51.076;7.950;2022-09-09T06:53:37;8.63;;;1.83;;
55031;SDS011;40928;51.076;7.950;2022-09-09T06:58:36;5.63;;;1.23;;
55031;SDS011;40928;51.076;7.950;2022-09-09T07:01:20;7.18;;;1.10;;
55031;SDS011;40928;51.076;7.950;2022-09-09T07:03:55;3.03;;;0.90;;
55031;SDS011;40928;51.076;7.950;2022-09-09T07:08:59;6.10;;;1.13;;
55031;SDS011;40928;51.076;7.950;2022-09-09T07:11:38;4.70;;;1.10;;
55031;SDS011;40928;51.076;7.950;2022-09-09T07:14:09;3.13;;;1.10;;
55031;SDS011;40928;51.076;7.950;2022-09-09T07:16:38;9.57;;;1.10;;
55031;SDS011;40928;51.076;7.950;2022-09-09T07:19:04;5.30;;;0.88;;
55031;SDS011;40928;51.076;7.950;2022-09-09T07:21:30;5.07;;;1.00;;
55031;SDS011;40928;51.076;7.950;2022-09-09T07:23:57;5.70;;;1.10;;
55031;SDS011;40928;51.076;7.950;2022-09-09T07:26:25;5.05;;;0.90;;
55031;SDS011;40928;51.076;7.950;2022-09-09T07:28:53;4.93;;;0.90;;
55031;SDS011;40928;51.076;7.950;2022-09-09T07:31:23;10.00;;;1.00;;
55031;SDS011;40928;51.076;7.950;2022-09-09T07:33:51;9.10;;;2.25;;
55031;SDS011;40928;51.076;7.950;2022-09-09T07:36:19;6.30;;;1.17;;
55031;SDS011;40928;51.076;7.950;2022-09-09T07:39:12;5.03;;;0.90;;
55031;SDS011;40928;51.076;7.950;2022-09-09T07:41:42;6.65;;;1.02;;
55031;SDS011;40928;51.076;7.950;2022-09-09T07:44:12;5.57;;;0.88;;
55031;SDS011;40928;51.076;7.950;2022-09-09T07:46:41;2.38;;;0.77;;
55031;SDS011;40928;51.076;7.950;2022-09-09T07:49:09;2.80;;;0.80;;
55031;SDS011;40928;51.076;7.950;2022-09-09T07:51:37;4.55;;;0.90;;
55031;SDS011;40928;51.076;7.950;2022-09-09T07:54:05;3.42;;;0.95;;
55031;SDS011;40928;51.076;7.950;2022-09-09T07:56:36;5.93;;;1.00;;
55031;SDS011;40928;51.076;7.950;2022-09-09T07:59:03;5.95;;;1.10;;
55031;SDS011;40928;51.076;7.950;2022-09-09T08:01:36;2.10;;;0.90;;
55031;SDS011;40928;51.076;7.950;2022-09-09T08:04:06;5.00;;;0.88;;
55031;SDS011;40928;51.076;7.950;2022-09-09T08:06:35;5.45;;;1.00;;
55031;SDS011;40928;51.076;7.950;2022-09-09T08:09:03;3.15;;;0.70;;
55031;SDS011;40928;51.076;7.950;2022-09-09T08:11:31;6.20;;;0.75;;
55031;SDS011;40928;51.076;7.950;2022-09-09T08:13:58;5.63;;;0.70;;
55031;SDS011;40928;51.076;7.950;2022-09-09T08:16:26;7.97;;;0.85;;
55031;SDS011;40928;51.076;7.950;2022-09-09T08:18:54;3.60;;;0.45;;
55031;SDS011;40928;51.076;7.950;2022-09-09T08:21:21;4.97;;;0.70;;
55031;SDS011;40928;51.076;7.950;2022-09-09T08:23:50;6.85;;;1.08;;
55031;SDS011;40928;51.076;7.950;2022-09-09T08:26:25;3.45;;;0.70;;
55031;SDS011;40928;51.076;7.950;2022-09-09T08:28:56;7.93;;;1.02;;
55031;SDS011;40928;51.076;7.950;2022-09-09T08:31:29;4.35;;;0.82;;
55031;SDS011;40928;51.076;7.950;2022-09-09T08:33:57;5.63;;;0.77;;
55031;SDS011;40928;51.076;7.950;2022-09-09T08:36:31;6.82;;;0.80;;
55031;SDS011;40928;51.076;7.950;2022-09-09T08:38:59;6.78;;;1.15;;
55031;SDS011;40928;51.076;7.950;2022-09-09T08:44:49;6.10;;;0.60;;
55031;SDS011;40928;51.076;7.950;2022-09-09T08:49:48;3.85;;;0.57;;
55031;SDS011;40928;51.076;7.950;2022-09-09T08:52:38;4.72;;;0.70;;
55031;SDS011;40928;51.076;7.950;2022-09-09T08:57:51;3.38;;;0.47;;
55031;SDS011;40928;51.076;7.950;2022-09-09T09:00:20;4.30;;;0.40;;
55031;SDS011;40928;51.076;7.950;2022-09-09T09:05:51;4.50;;;0.45;;
55031;SDS011;40928;51.076;7.950;2022-09-09T09:08:32;4.10;;;0.50;;
55031;SDS011;40928;51.076;7.950;2022-09-09T09:11:08;4.40;;;0.32;;
55031;SDS011;40928;51.076;7.950;2022-09-09T09:13:37;3.22;;;0.50;;
55031;SDS011;40928;51.076;7.950;2022-09-09T09:18:52;3.08;;;0.60;;
55031;SDS011;40928;51.076;7.950;2022-09-09T09:24:18;6.63;;;0.73;;
55031;SDS011;40928;51.076;7.950;2022-09-09T09:26:46;3.90;;;0.50;;
55031;SDS011;40928;51.076;7.950;2022-09-09T09:29:13;4.00;;;0.73;;
55031;SDS011;40928;51.076;7.950;2022-09-09T09:31:43;6.95;;;0.85;;
55031;SDS011;40928;51.076;7.950;2022-09-09T09:34:23;3.72;;;0.77;;
55031;SDS011;40928;51.076;7.950;2022-09-09T09:36:54;5.13;;;0.85;;
55031;SDS011;40928;51.076;7.950;2022-09-09T09:41:56;7.45;;;0.82;;
55031;SDS011;40928;51.076;7.950;2022-09-09T09:44:24;4.63;;;0.63;;
55031;SDS011;40928;51.076;7.950;2022-09-09T09:47:08;3.03;;;0.43;;
55031;SDS011;40928;51.076;7.950;2022-09-09T09:49:37;5.35;;;0.70;;
55031;SDS011;40928;51.076;7.950;2022-09-09T09:52:03;3.67;;;0.50;;
55031;SDS011;40928;51.076;7.950;2022-09-09T09:54:33;3.50;;;0.60;;
55031;SDS011;40928;51.076;7.950;2022-09-09T09:57:13;7.80;;;0.68;;
55031;SDS011;40928;51.076;7.950;2022-09-09T09:59:42;2.55;;;0.50;;
55031;SDS011;40928;51.076;7.950;2022-09-09T10:02:24;2.65;;;0.50;;
55031;SDS011;40928;51.076;7.950;2022-09-09T10:05:04;4.22;;;0.50;;
55031;SDS011;40928;51.076;7.950;2022-09-09T10:07:33;1.88;;;0.47;;
55031;SDS011;40928;51.076;7.950;2022-09-09T10:09:59;3.50;;;0.77;;
55031;SDS011;40928;51.076;7.950;2022-09-09T10:18:29;10.43;;;0.68;;
55031;SDS011;40928;51.076;7.950;2022-09-09T10:21:22;5.43;;;0.60;;
55031;SDS011;40928;51.076;7.950;2022-09-09T10:23:59;8.35;;;0.75;;
55031;SDS011;40928;51.076;7.950;2022-09-09T10:35:01;3.72;;;0.77;;
55031;SDS011;40928;51.076;7.950;2022-09-09T10:37:42;4.88;;;0.50;;
55031;SDS011;40928;51.076;7.950;2022-09-09T10:42:50;1.83;;;0.60;;
55031;SDS011;40928;51.076;7.950;2022-09-09T10:45:21;2.47;;;0.22;;
55031;SDS011;40928;51.076;7.950;2022-09-09T10:50:44;4.15;;;0.30;;
55031;SDS011;40928;51.076;7.950;2022-09-09T10:56:19;3.42;;;0.40;;
55031;SDS011;40928;51.076;7.950;2022-09-09T11:01:22;4.43;;;0.43;;
55031;SDS011;40928;51.076;7.950;2022-09-09T11:04:34;5.05;;;0.55;;
55031;SDS011;40928;51.076;7.950;2022-09-09T11:06:44;2.70;;;0.60;;
55031;SDS011;40928;51.076;7.950;2022-09-09T11:09:18;1.85;;;0.60;;
55031;SDS011;40928;51.076;7.950;2022-09-09T11:17:06;7.50;;;0.40;;
55031;SDS011;40928;51.076;7.950;2022-09-09T11:19:41;3.10;;;0.40;;
55031;SDS011;40928;51.076;7.950;2022-09-09T11:24:54;4.57;;;0.50;;
55031;SDS011;40928;51.076;7.950;2022-09-09T11:30:21;2.40;;;0.50;;
55031;SDS011;40928;51.076;7.950;2022-09-09T11:32:54;6.25;;;0.50;;
55031;SDS011;40928;51.076;7.950;2022-09-09T11:40:58;1.00;;;0.30;;
55031;SDS011;40928;51.076;7.950;2022-09-09T11:43:29;5.15;;;0.52;;
55031;SDS011;40928;51.076;7.950;2022-09-09T11:45:59;3.50;;;0.30;;
55031;SDS011;40928;51.076;7.950;2022-09-09T11:48:34;6.88;;;0.60;;
55031;SDS011;40928;51.076;7.950;2022-09-09T11:51:04;4.65;;;0.50;;
55031;SDS011;40928;51.076;7.950;2022-09-09T11:53:33;3.03;;;0.35;;
55031;SDS011;40928;51.076;7.950;2022-09-09T11:56:04;4.35;;;0.47;;
55031;SDS011;40928;51.076;7.950;2022-09-09T11:59:00;2.92;;;0.45;;
55031;SDS011;40928;51.076;7.950;2022-09-09T12:01:39;2.95;;;0.50;;
55031;SDS011;40928;51.076;7.950;2022-09-09T12:07:02;3.70;;;0.65;;
55031;SDS011;40928;51.076;7.950;2022-09-09T12:09:33;4.25;;;0.40;;
55031;SDS011;40928;51.076;7.950;2022-09-09T12:12:32;4.72;;;0.30;;
55031;SDS011;40928;51.076;7.950;2022-09-09T12:15:17;2.63;;;0.50;;
55031;SDS011;40928;51.076;7.950;2022-09-09T12:17:48;3.95;;;0.90;;
55031;SDS011;40928;51.076;7.950;2022-09-09T12:22:51;5.38;;;0.60;;
55031;SDS011;40928;51.076;7.950;2022-09-09T12:25:52;2.45;;;0.30;;
55031;SDS011;40928;51.076;7.950;2022-09-09T12:34:10;6.25;;;0.45;;
55031;SDS011;40928;51.076;7.950;2022-09-09T12:36:59;3.53;;;0.40;;
55031;SDS011;40928;51.076;7.950;2022-09-09T12:39:39;3.40;;;0.60;;
55031;SDS011;40928;51.076;7.950;2022-09-09T12:42:18;1.98;;;0.20;;
55031;SDS011;40928;51.076;7.950;2022-09-09T12:44:55;4.88;;;0.95;;
55031;SDS011;40928;51.076;7.950;2022-09-09T12:47:26;1.70;;;0.38;;
55031;SDS011;40928;51.076;7.950;2022-09-09T12:50:44;2.03;;;0.50;;
55031;SDS011;40928;51.076;7.950;2022-09-09T12:53:08;2.60;;;0.40;;
55031;SDS011;40928;51.076;7.950;2022-09-09T12:55:48;3.58;;;0.65;;
55031;SDS011;40928;51.076;7.950;2022-09-09T12:58:17;4.03;;;0.43;;
55031;SDS011;40928;51.076;7.950;2022-09-09T13:00:52;2.15;;;0.40;;
55031;SDS011;40928;51.076;7.950;2022-09-09T13:03:21;5.18;;;0.50;;
55031;SDS011;40928;51.076;7.950;2022-09-09T13:05:47;3.60;;;0.40;;
55031;SDS011;40928;51.076;7.950;2022-09-09T13:08:14;2.83;;;0.35;;
55031;SDS011;40928;51.076;7.950;2022-09-09T13:10:58;4.97;;;0.50;;
55031;SDS011;40928;51.076;7.950;2022-09-09T13:13:29;4.13;;;0.60;;
55031;SDS011;40928;51.076;7.950;2022-09-09T13:16:01;2.90;;;0.55;;
55031;SDS011;40928;51.076;7.950;2022-09-09T13:18:30;3.17;;;0.65;;
55031;SDS011;40928;51.076;7.950;2022-09-09T13:20:58;3.60;;;0.60;;
55031;SDS011;40928;51.076;7.950;2022-09-09T13:23:34;1.40;;;0.30;;
55031;SDS011;40928;51.076;7.950;2022-09-09T13:26:05;4.65;;;0.55;;
55031;SDS011;40928;51.076;7.950;2022-09-09T13:28:44;3.35;;;0.57;;
55031;SDS011;40928;51.076;7.950;2022-09-09T13:31:24;4.13;;;0.88;;
55031;SDS011;40928;51.076;7.950;2022-09-09T13:33:53;3.33;;;0.40;;
55031;SDS011;40928;51.076;7.950;2022-09-09T13:36:32;7.53;;;1.55;;
55031;SDS011;40928;51.076;7.950;2022-09-09T13:39:00;1.33;;;0.32;;
55031;SDS011;40928;51.076;7.950;2022-09-09T13:44:01;4.00;;;0.50;;
55031;SDS011;40928;51.076;7.950;2022-09-09T13:46:36;2.72;;;0.60;;
55031;SDS011;40928;51.076;7.950;2022-09-09T13:51:36;1.95;;;0.40;;
55031;SDS011;40928;51.076;7.950;2022-09-09T13:54:13;2.10;;;0.32;;
55031;SDS011;40928;51.076;7.950;2022-09-09T13:56:40;1.05;;;0.20;;
55031;SDS011;40928;51.076;7.950;2022-09-09T13:59:11;5.63;;;0.65;;
55031;SDS011;40928;51.076;7.950;2022-09-09T14:01:38;4.05;;;0.40;;
55031;SDS011;40928;51.076;7.950;2022-09-09T14:04:04;1.70;;;0.20;;
55031;SDS011;40928;51.076;7.950;2022-09-09T14:06:34;0.90;;;0.20;;
55031;SDS011;40928;51.076;7.950;2022-09-09T14:09:03;3.53;;;0.40;;
55031;SDS011;40928;51.076;7.950;2022-09-09T14:11:33;0.80;;;0.30;;
55031;SDS011;40928;51.076;7.950;2022-09-09T14:13:58;2.72;;;0.35;;
55031;SDS011;40928;51.076;7.950;2022-09-09T14:16:26;1.70;;;0.20;;
55031;SDS011;40928;51.076;7.950;2022-09-09T14:18:53;2.83;;;0.25;;
55031;SDS011;40928;51.076;7.950;2022-09-09T14:21:18;1.90;;;0.60;;
55031;SDS011;40928;51.076;7.950;2022-09-09T14:23:44;2.90;;;0.50;;
55031;SDS011;40928;51.076;7.950;2022-09-09T14:26:09;1.65;;;0.22;;
55031;SDS011;40928;51.076;7.950;2022-09-09T14:28:35;3.33;;;0.20;;
55031;SDS011;40928;51.076;7.950;2022-09-09T14:31:02;1.60;;;0.38;;
55031;SDS011;40928;51.076;7.950;2022-09-09T14:33:29;1.38;;;0.40;;
55031;SDS011;40928;51.076;7.950;2022-09-09T14:35:56;2.85;;;0.32;;
55031;SDS011;40928;51.076;7.950;2022-09-09T14:38:23;2.17;;;0.30;;
55031;SDS011;40928;51.076;7.950;2022-09-09T14:40:49;2.08;;;0.40;;
55031;SDS011;40928;51.076;7.950;2022-09-09T14:43:15;1.58;;;0.30;;
55031;SDS011;40928;51.076;7.950;2022-09-09T14:45:40;4.65;;;0.40;;
55031;SDS011;40928;51.076;7.950;2022-09-09T14:48:06;3.00;;;0.70;;
55031;SDS011;40928;51.076;7.950;2022-09-09T14:50:31;2.20;;;0.25;;
55031;SDS011;40928;51.076;7.950;2022-09-09T14:52:57;2.35;;;0.30;;
55031;SDS011;40928;51.076;7.950;2022-09-09T14:55:22;3.72;;;0.50;;
55031;SDS011;40928;51.076;7.950;2022-09-09T14:57:48;2.58;;;0.30;;
55031;SDS011;40928;51.076;7.950;2022-09-09T15:00:17;1.85;;;0.40;;
55031;SDS011;40928;51.076;7.950;2022-09-09T15:02:42;1.42;;;0.45;;
55031;SDS011;40928;51.076;7.950;2022-09-09T15:05:08;1.88;;;0.30;;
55031;SDS011;40928;51.076;7.950;2022-09-09T15:07:34;6.65;;;0.40;;
55031;SDS011;40928;51.076;7.950;2022-09-09T15:09:59;2.30;;;0.43;;
55031;SDS011;40928;51.076;7.950;2022-09-09T15:12:24;3.92;;;0.30;;
55031;SDS011;40928;51.076;7.950;2022-09-09T15:14:50;9.50;;;0.35;;
55031;SDS011;40928;51.076;7.950;2022-09-09T15:17:16;7.00;;;0.82;;
55031;SDS011;40928;51.076;7.950;2022-09-09T15:19:41;1.60;;;0.40;;
55031;SDS011;40928;51.076;7.950;2022-09-09T15:22:07;1.38;;;0.20;;
55031;SDS011;40928;51.076;7.950;2022-09-09T15:24:34;2.70;;;0.30;;
55031;SDS011;40928;51.076;7.950;2022-09-09T15:27:00;1.63;;;0.30;;
55031;SDS011;40928;51.076;7.950;2022-09-09T15:29:27;4.13;;;0.30;;
55031;SDS011;40928;51.076;7.950;2022-09-09T15:31:53;2.50;;;0.45;;
55031;SDS011;40928;51.076;7.950;2022-09-09T15:34:20;8.55;;;0.30;;
55031;SDS011;40928;51.076;7.950;2022-09-09T15:36:45;1.83;;;0.20;;
55031;SDS011;40928;51.076;7.950;2022-09-09T15:39:12;2.88;;;0.40;;
55031;SDS011;40928;51.076;7.950;2022-09-09T15:41:41;7.07;;;0.40;;
55031;SDS011;40928;51.076;7.950;2022-09-09T15:44:08;2.00;;;0.20;;
55031;SDS011;40928;51.076;7.950;2022-09-09T15:46:36;0.77;;;0.13;;
55031;SDS011;40928;51.076;7.950;2022-09-09T15:51:40;9.90;;;1.63;;
55031;SDS011;40928;51.076;7.950;2022-09-09T15:54:08;7.10;;;1.27;;
55031;SDS011;40928;51.076;7.950;2022-09-09T15:56:38;1.75;;;0.40;;
55031;SDS011;40928;51.076;7.950;2022-09-09T15:59:04;2.63;;;0.32;;
55031;SDS011;40928;51.076;7.950;2022-09-09T16:01:30;4.05;;;0.52;;
55031;SDS011;40928;51.076;7.950;2022-09-09T16:03:56;2.50;;;0.38;;
55031;SDS011;40928;51.076;7.950;2022-09-09T16:06:23;3.35;;;0.40;;
55031;SDS011;40928;51.076;7.950;2022-09-09T16:08:50;1.85;;;0.47;;
55031;SDS011;40928;51.076;7.950;2022-09-09T16:11:22;4.13;;;0.40;;
55031;SDS011;40928;51.076;7.950;2022-09-09T16:13:51;2.42;;;0.22;;
55031;SDS011;40928;51.076;7.950;2022-09-09T16:16:18;2.53;;;0.40;;
55031;SDS011;40928;51.076;7.950;2022-09-09T16:18:48;1.45;;;0.63;;
55031;SDS011;40928;51.076;7.950;2022-09-09T16:21:18;3.85;;;0.40;;
55031;SDS011;40928;51.076;7.950;2022-09-09T16:23:46;4.40;;;0.77;;
55031;SDS011;40928;51.076;7.950;2022-09-09T16:26:15;0.73;;;0.30;;
55031;SDS011;40928;51.076;7.950;2022-09-09T16:28:41;3.70;;;0.30;;
55031;SDS011;40928;51.076;7.950;2022-09-09T16:31:08;2.95;;;0.45;;
55031;SDS011;40928;51.076;7.950;2022-09-09T16:33:35;2.63;;;0.40;;
55031;SDS011;40928;51.076;7.950;2022-09-09T16:36:35;7.00;;;0.40;;
55031;SDS011;40928;51.076;7.950;2022-09-09T16:38:59;2.58;;;0.32;;
55031;SDS011;40928;51.076;7.950;2022-09-09T16:41:27;2.03;;;0.32;;
55031;SDS011;40928;51.076;7.950;2022-09-09T16:43:55;2.55;;;0.70;;
55031;SDS011;40928;51.076;7.950;2022-09-09T16:46:21;1.85;;;0.55;;
55031;SDS011;40928;51.076;7.950;2022-09-09T16:48:49;1.27;;;0.22;;
55031;SDS011;40928;51.076;7.950;2022-09-09T16:51:19;3.60;;;0.52;;
55031;SDS011;40928;51.076;7.950;2022-09-09T16:56:17;3.17;;;0.50;;
55031;SDS011;40928;51.076;7.950;2022-09-09T16:58:49;2.90;;;0.60;;
55031;SDS011;40928;51.076;7.950;2022-09-09T17:01:16;4.22;;;0.52;;
55031;SDS011;40928;51.076;7.950;2022-09-09T17:03:41;4.00;;;0.30;;
55031;SDS011;40928;51.076;7.950;2022-09-09T17:06:13;2.08;;;0.30;;
55031;SDS011;40928;51.076;7.950;2022-09-09T17:08:40;4.05;;;0.32;;
55031;SDS011;40928;51.076;7.950;2022-09-09T17:11:13;1.45;;;0.25;;
55031;SDS011;40928;51.076;7.950;2022-09-09T17:13:46;0.85;;;0.17;;
55031;SDS011;40928;51.076;7.950;2022-09-09T17:16:14;0.77;;;0.13;;
55031;SDS011;40928;51.076;7.950;2022-09-09T17:18:41;0.20;;;0.05;;
55031;SDS011;40928;51.076;7.950;2022-09-09T17:21:08;0.20;;;0.10;;
55031;SDS011;40928;51.076;7.950;2022-09-09T17:23:39;1.80;;;0.28;;
55031;SDS011;40928;51.076;7.950;2022-09-09T17:26:07;1.90;;;0.10;;
55031;SDS011;40928;51.076;7.950;2022-09-09T17:28:35;0.13;;;0.00;;
55031;SDS011;40928;51.076;7.950;2022-09-09T17:31:02;1.13;;;0.20;;
55031;SDS011;40928;51.076;7.950;2022-09-09T17:33:30;4.00;;;0.10;;
55031;SDS011;40928;51.076;7.950;2022-09-09T17:35:59;0.43;;;0.03;;